Time;durP1;ratioP1;P1;durP2;ratioP2;P2;SDS_P1;SDS_P2;PMS_P1;PMS_P2;Temp;Humidity;BMP_temperature;BMP_pressure;BME280_temperature;BME280_humidity;BME280_pressure;Samples;Min_cycle;Max_cycle;Signal;HPM_P1;HPM_P2
2022/11/26 00:02:33;;;;;;;333.17;80.00;;;;;;;;;;6180208;28;20105;-72
2022/11/26 00:05:34;;;;;;;247.90;77.17;;;;;;;;;;6198560;28;20033;-72
2022/11/26 00:08:34;;;;;;;280.67;83.63;;;;;;;;;;6196351;28;20042;-72
2022/11/26 00:11:34;;;;;;;189.67;70.10;;;;;;;;;;6198204;28;20377;-72
2022/11/26 00:14:35;;;;;;;200.13;72.07;;;;;;;;;;6197705;28;20402;-72
2022/11/26 00:17:35;;;;;;;212.83;74.37;;;;;;;;;;6180565;28;20467;-72
2022/11/26 00:20:35;;;;;;;249.13;74.57;;;;;;;;;;6197605;28;20034;-72
2022/11/26 00:23:36;;;;;;;201.07;71.47;;;;;;;;;;6197126;28;20026;-72
2022/11/26 00:26:36;;;;;;;195.13;72.50;;;;;;;;;;6197371;28;20034;-72
2022/11/26 00:29:36;;;;;;;262.90;81.38;;;;;;;;;;6180567;28;20022;-72
2022/11/26 00:32:36;;;;;;;214.05;79.22;;;;;;;;;;6196948;28;20098;-72
2022/11/26 00:35:36;;;;;;;226.30;77.80;;;;;;;;;;6197334;28;20022;-72
2022/11/26 00:38:37;;;;;;;202.52;76.30;;;;;;;;;;6197024;28;20018;-72
2022/11/26 00:41:38;;;;;;;242.90;73.30;;;;;;;;;;6198107;28;20022;-72
2022/11/26 00:44:38;;;;;;;351.07;80.27;;;;;;;;;;6197038;28;20382;-72
2022/11/26 00:47:38;;;;;;;374.13;83.95;;;;;;;;;;6197153;28;20044;-72
2022/11/26 00:50:40;;;;;;;377.58;83.85;;;;;;;;;;6196687;28;20033;-72
2022/11/26 00:53:41;;;;;;;384.15;79.65;;;;;;;;;;6198369;28;20022;-72
2022/11/26 00:56:41;;;;;;;272.10;66.20;;;;;;;;;;6196737;28;20084;-72
2022/11/26 00:59:41;;;;;;;173.57;44.70;;;;;;;;;;6197364;28;20466;-72
2022/11/26 01:02:42;;;;;;;256.53;60.83;;;;;;;;;;6178461;28;20085;-72
2022/11/26 01:05:42;;;;;;;317.80;62.73;;;;;;;;;;6196808;28;20054;-72
2022/11/26 01:08:43;;;;;;;261.37;59.30;;;;;;;;;;6196721;28;20030;-72
2022/11/26 01:11:43;;;;;;;225.37;58.97;;;;;;;;;;6178863;28;20054;-72
2022/11/26 01:14:44;;;;;;;324.40;68.50;;;;;;;;;;6197372;28;20068;-72
2022/11/26 01:17:44;;;;;;;251.43;60.63;;;;;;;;;;6178969;28;20045;-72
2022/11/26 01:20:44;;;;;;;201.30;74.87;;;;;;;;;;6197307;28;20010;-73
2022/11/26 01:23:45;;;;;;;180.87;80.90;;;;;;;;;;6197027;28;20014;-73
2022/11/26 01:26:45;;;;;;;204.13;76.13;;;;;;;;;;6194452;28;20038;-72
2022/11/26 01:29:46;;;;;;;190.37;73.87;;;;;;;;;;6174530;28;20015;-72
2022/11/26 01:32:47;;;;;;;167.83;70.80;;;;;;;;;;6178621;28;20383;-73
2022/11/26 01:35:47;;;;;;;162.07;68.55;;;;;;;;;;6196272;28;20037;-72
2022/11/26 01:38:48;;;;;;;174.37;66.57;;;;;;;;;;6194957;28;20030;-72
2022/11/26 01:41:55;;;;;;;157.73;63.03;;;;;;;;;;6195177;28;20434;-72
2022/11/26 01:44:56;;;;;;;151.25;61.60;;;;;;;;;;6195958;28;20053;-72
2022/11/26 01:47:56;;;;;;;142.35;57.40;;;;;;;;;;6195921;28;20018;-72
2022/11/26 01:51:00;;;;;;;116.10;53.27;;;;;;;;;;6194747;28;20018;-72
2022/11/26 01:54:00;;;;;;;207.82;59.20;;;;;;;;;;6194989;28;20375;-73
2022/11/26 01:57:13;;;;;;;190.37;62.23;;;;;;;;;;6179138;28;20061;-72
2022/11/26 02:00:13;;;;;;;193.88;58.38;;;;;;;;;;6190146;28;20022;-72
2022/11/26 02:03:13;;;;;;;270.50;69.67;;;;;;;;;;6194641;28;20069;-72
2022/11/26 02:06:16;;;;;;;198.32;62.08;;;;;;;;;;6176934;28;20042;-72
2022/11/26 02:09:17;;;;;;;203.70;66.82;;;;;;;;;;6192097;28;20084;-72
2022/11/26 02:12:17;;;;;;;378.40;80.97;;;;;;;;;;6196281;28;20383;-73
2022/11/26 02:15:17;;;;;;;214.03;76.70;;;;;;;;;;6179157;28;20040;-72
2022/11/26 02:18:18;;;;;;;184.77;68.83;;;;;;;;;;6192519;28;20118;-72
2022/11/26 02:21:24;;;;;;;165.10;63.17;;;;;;;;;;6194735;28;20038;-73
2022/11/26 02:25:00;;;;;;;179.32;60.05;;;;;;;;;;6192569;28;20030;-73
2022/11/26 02:28:18;;;;;;;165.93;59.35;;;;;;;;;;6127191;28;20129;-73
2022/11/26 02:31:21;;;;;;;180.20;67.28;;;;;;;;;;6176675;28;20029;-73
2022/11/26 02:34:21;;;;;;;164.75;69.63;;;;;;;;;;6195575;28;20029;-73
2022/11/26 02:37:26;;;;;;;233.52;71.05;;;;;;;;;;6194562;28;20010;-72
2022/11/26 02:40:26;;;;;;;194.73;69.78;;;;;;;;;;6195200;28;20030;-72
2022/11/26 02:43:27;;;;;;;166.30;59.15;;;;;;;;;;6193535;28;20394;-73
2022/11/26 02:46:28;;;;;;;161.00;59.57;;;;;;;;;;6193971;28;20026;-72
2022/11/26 02:49:28;;;;;;;152.73;57.70;;;;;;;;;;6200431;28;20038;-72
2022/11/26 02:52:29;;;;;;;173.73;58.67;;;;;;;;;;6199991;28;20036;-72
2022/11/26 02:55:36;;;;;;;142.03;59.87;;;;;;;;;;6196759;28;20018;-73
2022/11/26 02:58:36;;;;;;;143.50;58.40;;;;;;;;;;6199218;28;20475;-73
2022/11/26 03:01:39;;;;;;;151.23;61.77;;;;;;;;;;6182856;28;20021;-73
2022/11/26 03:04:41;;;;;;;177.07;67.20;;;;;;;;;;6200472;28;20022;-72
2022/11/26 03:07:42;;;;;;;189.27;84.30;;;;;;;;;;6198715;28;20053;-73
2022/11/26 03:10:42;;;;;;;197.33;84.77;;;;;;;;;;6195924;28;20027;-73
2022/11/26 03:13:42;;;;;;;146.35;66.63;;;;;;;;;;6199693;28;20025;-73
2022/11/26 03:16:42;;;;;;;152.10;64.27;;;;;;;;;;6198958;28;20018;-72
2022/11/26 03:19:43;;;;;;;604.35;173.10;;;;;;;;;;6200592;28;20129;-73
2022/11/26 03:22:44;;;;;;;634.67;150.63;;;;;;;;;;6199000;28;20022;-73
2022/11/26 03:25:44;;;;;;;518.27;108.73;;;;;;;;;;6197925;28;20018;-73
2022/11/26 03:28:44;;;;;;;469.00;95.47;;;;;;;;;;6198237;28;20026;-72
2022/11/26 03:31:44;;;;;;;513.97;95.53;;;;;;;;;;6181824;28;20109;-72
2022/11/26 03:34:44;;;;;;;471.77;93.57;;;;;;;;;;6176390;28;20378;-73
2022/11/26 03:37:45;;;;;;;437.42;89.38;;;;;;;;;;6198542;28;20046;-73
2022/11/26 03:40:53;;;;;;;396.10;77.10;;;;;;;;;;6197638;28;20037;-72
2022/11/26 03:43:54;;;;;;;350.95;70.32;;;;;;;;;;6199436;28;20104;-73
2022/11/26 03:46:54;;;;;;;398.37;82.50;;;;;;;;;;6198925;28;20069;-73
2022/11/26 03:49:54;;;;;;;374.17;73.93;;;;;;;;;;6199512;28;20581;-73
2022/11/26 03:52:54;;;;;;;369.80;70.83;;;;;;;;;;6198107;28;20414;-72
2022/11/26 03:55:54;;;;;;;340.45;77.13;;;;;;;;;;6198922;28;20014;-73
2022/11/26 03:58:54;;;;;;;317.40;66.75;;;;;;;;;;6197728;28;20015;-73
2022/11/26 04:01:58;;;;;;;308.73;73.90;;;;;;;;;;6198213;28;20026;-73
2022/11/26 04:04:58;;;;;;;366.77;80.20;;;;;;;;;;6198219;28;20465;-73
2022/11/26 04:07:58;;;;;;;267.42;64.00;;;;;;;;;;6197134;28;20054;-73
2022/11/26 04:10:58;;;;;;;369.77;76.68;;;;;;;;;;6197951;28;20030;-73
2022/11/26 04:13:58;;;;;;;294.33;71.30;;;;;;;;;;6197783;28;20470;-73
2022/11/26 04:16:59;;;;;;;333.93;70.97;;;;;;;;;;6196997;28;20368;-73
2022/11/26 04:19:59;;;;;;;322.50;74.75;;;;;;;;;;6197477;28;20049;-72
2022/11/26 04:22:59;;;;;;;354.27;68.00;;;;;;;;;;6197367;28;20447;-73
2022/11/26 04:25:59;;;;;;;359.85;69.63;;;;;;;;;;6199041;28;20081;-73
2022/11/26 04:28:59;;;;;;;289.37;66.90;;;;;;;;;;6198067;28;20037;-73
2022/11/26 04:31:59;;;;;;;387.23;83.35;;;;;;;;;;6179431;28;20033;-73
2022/11/26 04:35:00;;;;;;;309.98;70.78;;;;;;;;;;6197311;28;20029;-73
2022/11/26 04:38:00;;;;;;;305.90;68.13;;;;;;;;;;6197800;28;20029;-73
2022/11/26 04:41:00;;;;;;;282.17;69.63;;;;;;;;;;6197311;28;20057;-73
2022/11/26 04:44:00;;;;;;;373.77;80.60;;;;;;;;;;6197674;28;20109;-73
2022/11/26 04:47:00;;;;;;;362.00;73.47;;;;;;;;;;6197267;28;20026;-73
2022/11/26 04:50:01;;;;;;;320.92;63.78;;;;;;;;;;6197566;28;20038;-73
2022/11/26 04:53:01;;;;;;;271.20;61.40;;;;;;;;;;6196931;28;20034;-73
2022/11/26 04:56:01;;;;;;;337.98;67.20;;;;;;;;;;6197313;28;20018;-73
2022/11/26 04:59:01;;;;;;;287.02;64.15;;;;;;;;;;6197393;28;20438;-73
2022/11/26 05:02:01;;;;;;;278.48;57.45;;;;;;;;;;6197011;28;20018;-73
2022/11/26 05:05:02;;;;;;;248.53;51.40;;;;;;;;;;6197677;28;20046;-73
2022/11/26 05:08:02;;;;;;;271.90;53.33;;;;;;;;;;6195470;28;20046;-73
2022/11/26 05:11:02;;;;;;;207.30;46.77;;;;;;;;;;6196198;28;20026;-73
2022/11/26 05:14:02;;;;;;;225.37;47.97;;;;;;;;;;6197186;28;20048;-73
2022/11/26 05:17:03;;;;;;;223.20;47.40;;;;;;;;;;6197946;28;20042;-73
2022/11/26 05:20:03;;;;;;;203.68;47.42;;;;;;;;;;6197334;28;20018;-73
2022/11/26 05:23:04;;;;;;;215.30;50.07;;;;;;;;;;6196022;28;20533;-74
2022/11/26 05:26:04;;;;;;;191.32;47.55;;;;;;;;;;6197202;28;20022;-73
2022/11/26 05:29:04;;;;;;;188.10;45.83;;;;;;;;;;6196579;28;20113;-73
2022/11/26 05:32:04;;;;;;;177.45;44.80;;;;;;;;;;6195164;28;20132;-73
2022/11/26 05:35:04;;;;;;;180.85;45.67;;;;;;;;;;6196755;28;20024;-73
2022/11/26 05:38:05;;;;;;;142.33;37.33;;;;;;;;;;6196195;28;20014;-73
2022/11/26 05:41:05;;;;;;;192.43;41.27;;;;;;;;;;6193963;28;20010;-73
2022/11/26 05:44:05;;;;;;;200.03;40.03;;;;;;;;;;6178923;28;20014;-74
2022/11/26 05:47:05;;;;;;;190.65;32.47;;;;;;;;;;6178308;28;20160;-74
2022/11/26 05:50:06;;;;;;;252.00;44.50;;;;;;;;;;6195059;28;20029;-73
2022/11/26 05:53:06;;;;;;;92.67;24.23;;;;;;;;;;6196259;28;20065;-73
2022/11/26 05:56:07;;;;;;;129.57;33.00;;;;;;;;;;6196444;28;20018;-73
2022/11/26 05:59:07;;;;;;;165.77;36.93;;;;;;;;;;6195675;28;20065;-73
2022/11/26 06:02:07;;;;;;;152.87;33.70;;;;;;;;;;6194212;28;20503;-73
2022/11/26 06:05:08;;;;;;;218.07;36.27;;;;;;;;;;6194884;28;20022;-73
2022/11/26 06:08:08;;;;;;;192.50;42.13;;;;;;;;;;6193196;28;20050;-74
2022/11/26 06:11:10;;;;;;;187.57;42.37;;;;;;;;;;6193745;28;20049;-73
2022/11/26 06:14:10;;;;;;;218.75;44.03;;;;;;;;;;6193962;28;20352;-73
2022/11/26 06:17:10;;;;;;;178.70;38.00;;;;;;;;;;6177832;28;20025;-73
2022/11/26 06:20:11;;;;;;;222.00;39.53;;;;;;;;;;6178039;28;20045;-73
2022/11/26 06:23:11;;;;;;;214.57;39.80;;;;;;;;;;6174136;28;20021;-73
2022/11/26 06:26:11;;;;;;;182.75;40.70;;;;;;;;;;6195060;28;20018;-73
2022/11/26 06:29:12;;;;;;;165.17;39.67;;;;;;;;;;6177489;28;20022;-73
2022/11/26 06:32:12;;;;;;;116.03;33.72;;;;;;;;;;6194485;28;20018;-73
2022/11/26 06:35:12;;;;;;;133.63;32.15;;;;;;;;;;6194023;28;20018;-73
2022/11/26 06:38:12;;;;;;;176.47;39.23;;;;;;;;;;6194430;28;20018;-73
2022/11/26 06:41:12;;;;;;;125.05;34.38;;;;;;;;;;6176983;28;20503;-73
2022/11/26 06:44:13;;;;;;;186.03;36.77;;;;;;;;;;6194702;28;20037;-73
2022/11/26 06:47:13;;;;;;;218.52;40.67;;;;;;;;;;6193775;28;20068;-73
2022/11/26 06:50:14;;;;;;;184.90;38.53;;;;;;;;;;6193804;28;20010;-73
2022/11/26 06:53:14;;;;;;;205.00;37.35;;;;;;;;;;6195085;28;20498;-73
2022/11/26 06:56:15;;;;;;;175.80;36.30;;;;;;;;;;6193851;28;20019;-73
2022/11/26 06:59:15;;;;;;;160.53;35.33;;;;;;;;;;6194683;28;20026;-73
2022/11/26 07:02:15;;;;;;;115.07;27.05;;;;;;;;;;6173172;28;20409;-73
2022/11/26 07:05:16;;;;;;;135.75;33.63;;;;;;;;;;6176111;28;20325;-73
2022/11/26 07:08:16;;;;;;;127.53;31.50;;;;;;;;;;6192980;28;20047;-73
2022/11/26 07:11:16;;;;;;;224.40;41.50;;;;;;;;;;6192780;28;20378;-73
2022/11/26 07:14:16;;;;;;;184.07;37.67;;;;;;;;;;6191820;28;20025;-74
2022/11/26 07:17:17;;;;;;;192.33;49.40;;;;;;;;;;6193150;28;20351;-73
2022/11/26 07:20:17;;;;;;;266.80;56.67;;;;;;;;;;6172931;28;20017;-73
2022/11/26 07:23:17;;;;;;;210.83;52.53;;;;;;;;;;6190862;28;20563;-73
2022/11/26 07:26:18;;;;;;;279.42;58.13;;;;;;;;;;6192133;28;20022;-73
2022/11/26 07:29:19;;;;;;;213.43;52.45;;;;;;;;;;6191075;28;20061;-72
2022/11/26 07:32:19;;;;;;;274.87;56.90;;;;;;;;;;6194098;28;20386;-74
2022/11/26 07:35:19;;;;;;;229.15;54.25;;;;;;;;;;6197830;28;20023;-72
2022/11/26 07:38:20;;;;;;;179.33;43.17;;;;;;;;;;6199306;28;20114;-73
2022/11/26 07:41:22;;;;;;;276.80;51.23;;;;;;;;;;6196913;28;20018;-73
2022/11/26 07:44:22;;;;;;;;;;;;;;;;;;6180762;28;20023;-73
2022/11/26 07:47:22;;;;;;;228.05;45.38;;;;;;;;;;6198873;28;19916;-73
2022/11/26 07:50:22;;;;;;;225.77;48.87;;;;;;;;;;6198792;28;20045;-73
2022/11/26 07:53:23;;;;;;;258.93;50.53;;;;;;;;;;6180348;28;20014;-72
2022/11/26 07:56:23;;;;;;;267.77;52.57;;;;;;;;;;6181466;28;20057;-73
2022/11/26 07:59:23;;;;;;;244.97;48.00;;;;;;;;;;6199914;28;20041;-74
2022/11/26 08:02:23;;;;;;;277.37;51.73;;;;;;;;;;6197504;28;20399;-73
2022/11/26 08:05:24;;;;;;;314.65;70.05;;;;;;;;;;6195244;28;20077;-73
2022/11/26 08:08:24;;;;;;;317.87;63.27;;;;;;;;;;6187675;28;20062;-73
2022/11/26 08:11:26;;;;;;;210.90;51.80;;;;;;;;;;6169030;28;20027;-73
2022/11/26 08:14:26;;;;;;;;;;;;;;;;;;6167883;28;20025;-73
2022/11/26 08:17:26;;;;;;;197.50;50.10;;;;;;;;;;6172123;28;19913;-73
2022/11/26 08:20:26;;;;;;;185.63;52.07;;;;;;;;;;6172676;28;20042;-73
2022/11/26 08:23:28;;;;;;;245.20;52.77;;;;;;;;;;6172679;28;20027;-73
2022/11/26 08:26:28;;;;;;;197.38;47.70;;;;;;;;;;6172865;28;20023;-73
2022/11/26 08:29:28;;;;;;;192.55;48.78;;;;;;;;;;6172668;28;20027;-73
2022/11/26 08:32:28;;;;;;;177.67;46.53;;;;;;;;;;6173416;28;20027;-73
2022/11/26 08:35:28;;;;;;;137.30;45.90;;;;;;;;;;6172050;28;20046;-73
2022/11/26 08:38:29;;;;;;;125.43;44.07;;;;;;;;;;6173611;28;20352;-73
2022/11/26 08:41:29;;;;;;;126.83;48.33;;;;;;;;;;6172058;28;20051;-73
2022/11/26 08:44:29;;;;;;;127.60;48.83;;;;;;;;;;6167986;28;20383;-73
2022/11/26 08:47:30;;;;;;;134.67;48.60;;;;;;;;;;6172152;28;20019;-73
2022/11/26 08:50:30;;;;;;;149.64;50.04;;;;;;;;;;6171222;28;20514;-73
2022/11/26 08:53:31;;;;;;;138.10;47.23;;;;;;;;;;6172379;28;20023;-73
2022/11/26 08:56:33;;;;;;;150.55;58.25;;;;;;;;;;6174695;28;20029;-73
2022/11/26 08:59:33;;;;;;;161.57;61.15;;;;;;;;;;6172143;28;20475;-73
2022/11/26 09:02:33;;;;;;;182.47;62.07;;;;;;;;;;6170276;28;20030;-73
2022/11/26 09:05:33;;;;;;;182.27;63.20;;;;;;;;;;6168518;28;20030;-73
2022/11/26 09:08:43;;;;;;;162.90;61.37;;;;;;;;;;6194879;28;20050;-74
2022/11/26 09:11:45;;;;;;;156.48;63.28;;;;;;;;;;6195556;28;20077;-74
2022/11/26 09:14:45;;;;;;;147.38;59.17;;;;;;;;;;6196086;28;20015;-74
2022/11/26 09:17:46;;;;;;;148.83;57.93;;;;;;;;;;6195939;28;20056;-73
2022/11/26 09:20:46;;;;;;;137.70;52.58;;;;;;;;;;6196748;28;20015;-73
2022/11/26 09:23:46;;;;;;;142.13;56.30;;;;;;;;;;6197624;28;20058;-73
2022/11/26 09:26:49;;;;;;;132.50;57.10;;;;;;;;;;6196300;28;20038;-73
2022/11/26 09:29:49;;;;;;;146.23;59.95;;;;;;;;;;6195773;28;20089;-74
2022/11/26 09:32:50;;;;;;;177.83;65.23;;;;;;;;;;6177968;28;20041;-74
2022/11/26 09:35:50;;;;;;;180.63;66.47;;;;;;;;;;6195796;28;20025;-74
2022/11/26 09:38:54;;;;;;;143.05;63.15;;;;;;;;;;6194389;28;20427;-73
2022/11/26 09:42:05;;;;;;;136.27;58.40;;;;;;;;;;6193417;28;20728;-73
2022/11/26 09:45:11;;;;;;;175.40;75.17;;;;;;;;;;6190526;28;20022;-73
2022/11/26 09:48:15;;;;;;;174.38;72.50;;;;;;;;;;6192324;28;20019;-73
2022/11/26 09:51:16;;;;;;;201.00;88.20;;;;;;;;;;6193995;28;20014;-73
2022/11/26 09:54:17;;;;;;;;;;;;;;;;;;6174905;28;20030;-73
2022/11/26 09:57:34;;;;;;;181.63;72.20;;;;;;;;;;6192209;28;19920;-73
2022/11/26 10:00:42;;;;;;;198.73;85.00;;;;;;;;;;6194550;28;20607;-74
2022/11/26 10:03:43;;;;;;;180.93;70.90;;;;;;;;;;6194087;28;20022;-74
2022/11/26 10:06:49;;;;;;;173.57;67.47;;;;;;;;;;6193943;28;21570;-71
2022/11/26 10:09:51;;;;;;;181.52;71.82;;;;;;;;;;6192061;28;20026;-72
2022/11/26 10:13:15;;;;;;;175.75;69.63;;;;;;;;;;6177041;28;20498;-72
2022/11/26 10:16:21;;;;;;;172.48;64.88;;;;;;;;;;6192901;28;20014;-73
2022/11/26 10:19:27;;;;;;;176.60;68.93;;;;;;;;;;6194952;28;20019;-72
2022/11/26 10:22:30;;;;;;;185.90;67.90;;;;;;;;;;6195452;28;20022;-72
2022/11/26 10:25:33;;;;;;;180.73;65.72;;;;;;;;;;6195458;28;20037;-72
2022/11/26 10:28:47;;;;;;;177.38;64.88;;;;;;;;;;6195999;28;20451;-73
2022/11/26 10:31:48;;;;;;;181.00;68.65;;;;;;;;;;6194896;28;20057;-72
2022/11/26 10:34:52;;;;;;;131.07;51.30;;;;;;;;;;6195020;28;20062;-72
2022/11/26 10:37:56;;;;;;;171.10;72.03;;;;;;;;;;6178008;28;20129;-72
2022/11/26 10:40:56;;;;;;;174.85;71.90;;;;;;;;;;6195445;28;20022;-73
2022/11/26 10:44:16;;;;;;;147.82;65.22;;;;;;;;;;6189938;28;20030;-73
2022/11/26 10:47:27;;;;;;;192.02;70.03;;;;;;;;;;6195294;28;20077;-72
2022/11/26 10:50:28;;;;;;;184.38;69.80;;;;;;;;;;6180955;28;20023;-73
2022/11/26 10:53:33;;;;;;;167.32;68.88;;;;;;;;;;6194111;28;20506;-74
2022/11/26 10:56:44;;;;;;;177.32;68.78;;;;;;;;;;6195626;28;20030;-73
2022/11/26 10:59:47;;;;;;;192.85;73.30;;;;;;;;;;6194378;28;20548;-72
2022/11/26 11:02:48;;;;;;;176.90;71.70;;;;;;;;;;6195575;28;20026;-73
2022/11/26 11:05:48;;;;;;;185.13;71.60;;;;;;;;;;6174232;28;20030;-73
2022/11/26 11:08:50;;;;;;;193.67;73.37;;;;;;;;;;6196070;28;20073;-73
2022/11/26 11:12:12;;;;;;;204.50;75.53;;;;;;;;;;6199567;28;20426;-73
2022/11/26 11:15:12;;;;;;;;;;;;;;;;;;6199233;28;20049;-73
2022/11/26 11:18:20;;;;;;;194.32;78.32;;;;;;;;;;6179989;28;19953;-73
2022/11/26 11:21:21;;;;;;;182.27;69.60;;;;;;;;;;6196461;28;20467;-73
2022/11/26 11:24:23;;;;;;;197.83;75.60;;;;;;;;;;6195309;28;20029;-71
2022/11/26 11:27:24;;;;;;;189.88;78.35;;;;;;;;;;6196771;28;20438;-71
2022/11/26 11:30:25;;;;;;;;;;;;;;;;;;6197954;28;20478;-71
2022/11/26 11:33:26;;;;;;;179.13;78.30;;;;;;;;;;6194353;28;20439;-73
2022/11/26 11:36:27;;;;;;;200.05;81.88;;;;;;;;;;6196809;28;20400;-73
2022/11/26 11:39:29;;;;;;;227.93;87.60;;;;;;;;;;6194777;28;20041;-73
2022/11/26 11:42:31;;;;;;;212.15;84.10;;;;;;;;;;6195538;28;20030;-73
2022/11/26 11:45:31;;;;;;;;;;;;;;;;;;6180778;28;20030;-73
2022/11/26 11:49:00;;;;;;;195.20;88.10;;;;;;;;;;6196186;28;19964;-73
2022/11/26 11:52:00;;;;;;;219.23;100.70;;;;;;;;;;6179878;28;20100;-74
2022/11/26 11:55:13;;;;;;;254.52;96.13;;;;;;;;;;6196901;28;20026;-72
2022/11/26 11:58:31;;;;;;;225.55;102.60;;;;;;;;;;6197441;28;20026;-71
2022/11/26 12:01:50;;;;;;;197.20;90.00;;;;;;;;;;6180457;28;20030;-71
2022/11/26 12:05:01;;;;;;;163.65;77.53;;;;;;;;;;6196550;28;20494;-71
2022/11/26 12:08:13;;;;;;;192.43;79.63;;;;;;;;;;6197123;28;20129;-73
2022/11/26 12:11:39;;;;;;;140.20;71.63;;;;;;;;;;6196773;28;20081;-73
2022/11/26 12:14:41;;;;;;;175.13;68.88;;;;;;;;;;6173830;28;20034;-72
2022/11/26 12:17:42;;;;;;;;;;;;;;;;;;6194457;28;20463;-72
2022/11/26 12:20:45;;;;;;;146.45;53.75;;;;;;;;;;6196749;28;20384;-72
2022/11/26 12:23:54;;;;;;;116.50;46.95;;;;;;;;;;6198200;28;20033;-72
2022/11/26 12:26:56;;;;;;;138.00;53.90;;;;;;;;;;6198565;28;20037;-72
2022/11/26 12:30:05;;;;;;;116.40;48.63;;;;;;;;;;6180737;28;20045;-72
2022/11/26 12:33:16;;;;;;;100.82;43.72;;;;;;;;;;6197314;28;20021;-72
2022/11/26 12:36:22;;;;;;;127.33;50.23;;;;;;;;;;6196629;28;20093;-72
2022/11/26 12:39:35;;;;;;;116.78;51.65;;;;;;;;;;6193948;28;20623;-72
2022/11/26 12:42:40;;;;;;;120.88;44.15;;;;;;;;;;6195747;28;20109;-72
2022/11/26 12:45:46;;;;;;;119.78;45.58;;;;;;;;;;6190331;28;20025;-72
2022/11/26 12:48:51;;;;;;;129.20;45.08;;;;;;;;;;6195542;28;20053;-73
2022/11/26 12:52:01;;;;;;;136.07;45.67;;;;;;;;;;6195714;28;20019;-72
2022/11/26 12:55:06;;;;;;;93.30;36.50;;;;;;;;;;6195618;28;20010;-72
2022/11/26 12:58:12;;;;;;;104.95;38.30;;;;;;;;;;6194897;28;20041;-73
2022/11/26 13:01:13;;;;;;;81.28;34.28;;;;;;;;;;6195561;28;20102;-73
2022/11/26 13:04:14;;;;;;;80.13;31.57;;;;;;;;;;6195086;28;20524;-72
2022/11/26 13:07:24;;;;;;;110.07;42.97;;;;;;;;;;6195927;28;20138;-73
2022/11/26 13:10:33;;;;;;;105.00;38.10;;;;;;;;;;6194197;28;20026;-73
2022/11/26 13:13:40;;;;;;;115.07;43.13;;;;;;;;;;6195367;28;20014;-72
2022/11/26 13:16:43;;;;;;;85.28;33.28;;;;;;;;;;6194903;28;20018;-73
2022/11/26 13:20:13;;;;;;;99.32;38.40;;;;;;;;;;6194529;28;20026;-73
2022/11/26 13:23:31;;;;;;;90.85;39.10;;;;;;;;;;6107252;28;20026;-72
2022/11/26 13:26:44;;;;;;;93.35;35.97;;;;;;;;;;6193010;28;20540;-72
2022/11/26 13:29:44;;;;;;;91.60;34.10;;;;;;;;;;6195152;28;20018;-73
2022/11/26 13:32:44;;;;;;;95.22;34.22;;;;;;;;;;6193106;28;20031;-72
2022/11/26 13:35:56;;;;;;;99.25;36.58;;;;;;;;;;6192369;28;20018;-73
2022/11/26 13:38:58;;;;;;;102.00;34.70;;;;;;;;;;6193394;28;20474;-73
2022/11/26 13:42:17;;;;;;;102.03;38.08;;;;;;;;;;6193210;28;20072;-73
2022/11/26 13:45:36;;;;;;;96.90;39.28;;;;;;;;;;6193663;28;20050;-72
2022/11/26 13:48:53;;;;;;;105.60;40.88;;;;;;;;;;6193589;28;20467;-72
2022/11/26 13:52:13;;;;;;;117.30;48.22;;;;;;;;;;6194826;28;20030;-73
2022/11/26 13:55:22;;;;;;;95.50;40.17;;;;;;;;;;6193127;28;20029;-73
2022/11/26 13:58:29;;;;;;;103.05;37.00;;;;;;;;;;6190764;28;20021;-73
2022/11/26 14:01:29;;;;;;;84.75;35.22;;;;;;;;;;6178545;28;20018;-72
2022/11/26 14:04:32;;;;;;;101.87;38.10;;;;;;;;;;6195517;28;20493;-73
2022/11/26 14:07:32;;;;;;;104.28;47.05;;;;;;;;;;6195792;28;20058;-72
2022/11/26 14:10:32;;;;;;;141.83;62.40;;;;;;;;;;6193772;28;20026;-72
2022/11/26 14:13:33;;;;;;;126.07;52.92;;;;;;;;;;6194223;28;20033;-72
2022/11/26 14:16:53;;;;;;;103.33;44.47;;;;;;;;;;6193625;28;20057;-73
2022/11/26 14:19:57;;;;;;;122.30;52.58;;;;;;;;;;6188692;28;20081;-73
2022/11/26 14:23:17;;;;;;;115.50;50.63;;;;;;;;;;6197477;28;20030;-73
2022/11/26 14:26:20;;;;;;;143.63;58.90;;;;;;;;;;6175865;28;20029;-73
2022/11/26 14:29:21;;;;;;;158.90;65.72;;;;;;;;;;6194395;28;20028;-73
2022/11/26 14:32:22;;;;;;;152.23;67.53;;;;;;;;;;6190987;28;20378;-72
2022/11/26 14:35:33;;;;;;;126.23;52.40;;;;;;;;;;6192436;28;20018;-73
2022/11/26 14:38:34;;;;;;;169.63;63.65;;;;;;;;;;6174805;28;20017;-72
2022/11/26 14:41:49;;;;;;;131.80;58.53;;;;;;;;;;6174807;28;20173;-72
2022/11/26 14:45:13;;;;;;;150.82;58.00;;;;;;;;;;6189462;28;20027;-73
2022/11/26 14:48:18;;;;;;;156.73;62.03;;;;;;;;;;6192842;28;20102;-73
2022/11/26 14:51:22;;;;;;;151.38;60.55;;;;;;;;;;6192247;28;20081;-73
2022/11/26 14:54:31;;;;;;;151.27;64.43;;;;;;;;;;6192774;28;20026;-73
2022/11/26 14:57:41;;;;;;;122.32;54.67;;;;;;;;;;6193793;28;20375;-73
2022/11/26 15:00:42;;;;;;;128.00;57.15;;;;;;;;;;6193639;28;20375;-73
2022/11/26 15:03:51;;;;;;;109.63;51.70;;;;;;;;;;6191574;28;20022;-73
2022/11/26 15:06:51;;;;;;;95.80;39.63;;;;;;;;;;6191468;28;20127;-73
2022/11/26 15:09:58;;;;;;;61.77;29.80;;;;;;;;;;6170903;28;20042;-74
2022/11/26 15:13:02;;;;;;;109.15;43.83;;;;;;;;;;6189016;28;20026;-73
2022/11/26 15:16:20;;;;;;;103.63;43.50;;;;;;;;;;6189609;28;20011;-73
2022/11/26 15:19:23;;;;;;;113.13;46.88;;;;;;;;;;6190745;28;20122;-73
2022/11/26 15:22:41;;;;;;;77.00;35.55;;;;;;;;;;6189494;28;20053;-74
2022/11/26 15:25:44;;;;;;;94.75;37.95;;;;;;;;;;6192462;28;20370;-73
2022/11/26 15:28:44;;;;;;;88.88;35.72;;;;;;;;;;6192050;28;20014;-73
2022/11/26 15:31:45;;;;;;;125.10;49.10;;;;;;;;;;6194076;28;20026;-73
2022/11/26 15:34:45;;;;;;;100.47;45.45;;;;;;;;;;6176114;28;20093;-73
2022/11/26 15:37:45;;;;;;;44.67;22.47;;;;;;;;;;6195046;28;20025;-73
2022/11/26 15:41:00;;;;;;;49.27;24.40;;;;;;;;;;6192068;28;20022;-74
2022/11/26 15:44:01;;;;;;;43.10;22.05;;;;;;;;;;6193271;28;20506;-73
2022/11/26 15:47:01;;;;;;;47.20;23.07;;;;;;;;;;6193583;28;20064;-74
2022/11/26 15:50:01;;;;;;;43.80;18.07;;;;;;;;;;6193524;28;20027;-74
2022/11/26 15:53:03;;;;;;;36.73;19.33;;;;;;;;;;6173292;28;20026;-73
2022/11/26 15:56:04;;;;;;;40.58;17.15;;;;;;;;;;6197798;28;20023;-74
2022/11/26 15:59:11;;;;;;;36.65;18.33;;;;;;;;;;6199131;28;20095;-74
2022/11/26 16:02:16;;;;;;;44.22;16.75;;;;;;;;;;6195149;28;20605;-73
2022/11/26 16:05:27;;;;;;;34.03;16.48;;;;;;;;;;6191978;28;20501;-73
2022/11/26 16:08:31;;;;;;;28.45;15.50;;;;;;;;;;6192247;28;20499;-73
2022/11/26 16:11:35;;;;;;;39.58;16.52;;;;;;;;;;6176758;28;20394;-73
2022/11/26 16:14:36;;;;;;;33.72;20.20;;;;;;;;;;6196545;28;20410;-74
2022/11/26 16:17:36;;;;;;;46.33;20.97;;;;;;;;;;6196380;28;20072;-73
2022/11/26 16:20:37;;;;;;;46.13;24.37;;;;;;;;;;6197145;28;20015;-73
2022/11/26 16:23:37;;;;;;;41.05;23.83;;;;;;;;;;6197367;28;20462;-73
2022/11/26 16:26:56;;;;;;;46.90;24.13;;;;;;;;;;6196869;28;20268;-73
2022/11/26 16:29:56;;;;;;;53.72;28.15;;;;;;;;;;6197852;28;20057;-73
2022/11/26 16:32:56;;;;;;;48.20;27.27;;;;;;;;;;6191196;28;20022;-73
2022/11/26 16:35:57;;;;;;;41.17;23.90;;;;;;;;;;6196111;28;20014;-73
2022/11/26 16:38:57;;;;;;;46.07;24.43;;;;;;;;;;6197128;28;20018;-73
2022/11/26 16:41:57;;;;;;;41.00;22.42;;;;;;;;;;6196292;28;20101;-74
2022/11/26 16:44:57;;;;;;;45.22;23.98;;;;;;;;;;6194569;28;20031;-73
2022/11/26 16:47:57;;;;;;;44.07;27.10;;;;;;;;;;6196779;28;20026;-73
2022/11/26 16:50:57;;;;;;;53.80;29.60;;;;;;;;;;6196559;28;20026;-74
2022/11/26 16:53:58;;;;;;;49.22;28.38;;;;;;;;;;6195817;28;20046;-73
2022/11/26 16:56:58;;;;;;;48.78;25.25;;;;;;;;;;6196324;28;20014;-73
2022/11/26 17:00:00;;;;;;;43.53;20.43;;;;;;;;;;6196096;28;20026;-74
2022/11/26 17:03:00;;;;;;;;;;;;;;;;;;6197493;28;20022;-74
2022/11/26 17:06:01;;;;;;;36.10;18.30;;;;;;;;;;6193520;28;19940;-73
2022/11/26 17:09:02;;;;;;;40.78;18.92;;;;;;;;;;6195566;28;20022;-73
2022/11/26 17:12:02;;;;;;;45.60;20.87;;;;;;;;;;6196178;28;20014;-73
2022/11/26 17:15:02;;;;;;;43.57;21.87;;;;;;;;;;6196444;28;20034;-73
2022/11/26 17:18:04;;;;;;;47.23;22.63;;;;;;;;;;6195496;28;20010;-72
2022/11/26 17:21:04;;;;;;;50.30;24.42;;;;;;;;;;6196791;28;20498;-73
2022/11/26 17:24:05;;;;;;;41.60;21.97;;;;;;;;;;6196307;28;20025;-73
2022/11/26 17:27:10;;;;;;;46.40;23.07;;;;;;;;;;6195716;28;20081;-73
2022/11/26 17:30:14;;;;;;;44.03;22.25;;;;;;;;;;6196708;28;20018;-73
2022/11/26 17:33:15;;;;;;;45.80;22.65;;;;;;;;;;6194010;28;20114;-73
2022/11/26 17:36:16;;;;;;;54.43;26.23;;;;;;;;;;6195908;28;20454;-72